Time;durP1;ratioP1;P1;durP2;ratioP2;P2;SDS_P1;SDS_P2;PMS_P1;PMS_P2;Temp;Humidity;BMP_temperature;BMP_pressure;BME280_temperature;BME280_humidity;BME280_pressure;Samples;Min_cycle;Max_cycle;Signal;HPM_P1;HPM_P2
2022/05/21 00:00:47;;;;;;;6.50;3.80;;;18.90;93.90;;;;;;5054790;28;20029;-72
2022/05/21 00:03:13;;;;;;;8.00;4.03;;;19.00;96.00;;;;;;5053474;28;20379;-72
2022/05/21 00:05:39;;;;;;;10.25;3.88;;;19.00;95.20;;;;;;5054678;28;20482;-73
2022/05/21 00:08:10;;;;;;;9.95;3.50;;;19.00;95.60;;;;;;5054426;28;20463;-73
2022/05/21 00:10:38;;;;;;;12.77;3.88;;;19.00;95.80;;;;;;5054735;28;20033;-73
2022/05/21 00:13:05;;;;;;;5.47;2.78;;;19.10;96.00;;;;;;5053200;28;20021;-73
2022/05/21 00:15:32;;;;;;;10.77;3.30;;;19.10;94.30;;;;;;5054496;28;20029;-73
2022/05/21 00:17:58;;;;;;;9.70;2.72;;;19.10;94.70;;;;;;5052997;28;20485;-72
2022/05/21 00:23:16;;;;;;;5.38;3.20;;;19.10;94.00;;;;;;5054334;28;20128;-73
2022/05/21 00:25:43;;;;;;;6.57;2.85;;;19.10;94.50;;;;;;5054463;28;20100;-72
2022/05/21 00:28:10;;;;;;;6.28;2.83;;;19.10;94.40;;;;;;5054060;28;20390;-72
2022/05/21 00:30:36;;;;;;;12.00;2.97;;;19.10;95.90;;;;;;5054234;28;20029;-73
2022/05/21 00:33:01;;;;;;;15.85;2.80;;;19.00;97.50;;;;;;5052980;28;20040;-74
2022/05/21 00:35:28;;;;;;;9.32;2.92;;;19.00;97.10;;;;;;5052886;28;20432;-73
2022/05/21 00:37:53;;;;;;;5.38;2.33;;;19.00;97.10;;;;;;5053927;28;20024;-71
2022/05/21 00:40:19;;;;;;;4.43;2.47;;;18.90;97.10;;;;;;5054071;28;20033;-74
2022/05/21 00:42:45;;;;;;;9.52;3.08;;;18.90;96.60;;;;;;5052687;28;20023;-71
2022/05/21 00:45:12;;;;;;;8.32;2.75;;;18.90;97.30;;;;;;5054056;28;20393;-71
2022/05/21 00:47:38;;;;;;;6.57;2.67;;;18.80;97.60;;;;;;5053748;28;20027;-72
2022/05/21 00:50:06;;;;;;;12.20;2.33;;;18.80;98.50;;;;;;5052512;28;20029;-73
2022/05/21 00:52:34;;;;;;;8.40;2.75;;;18.70;99.50;;;;;;5053703;28;20025;-73
2022/05/21 00:55:36;;;;;;;6.43;3.13;;;18.70;99.90;;;;;;5053722;28;20498;-73
2022/05/21 01:00:53;;;;;;;4.82;2.83;;;18.50;99.90;;;;;;5053747;28;20051;-73
2022/05/21 01:03:19;;;;;;;5.53;3.03;;;18.40;99.90;;;;;;5053507;28;20025;-74
2022/05/21 01:05:47;;;;;;;5.63;3.25;;;18.40;99.90;;;;;;5053541;28;20429;-73
2022/05/21 01:08:13;;;;;;;6.15;2.90;;;18.40;99.90;;;;;;5053415;28;20024;-73
2022/05/21 01:10:45;;;;;;;4.50;2.53;;;18.30;99.90;;;;;;5053486;28;20372;-72
2022/05/21 01:13:15;;;;;;;7.18;3.10;;;18.30;99.90;;;;;;5053352;28;20017;-72
2022/05/21 01:15:45;;;;;;;8.40;2.95;;;18.20;99.90;;;;;;5053432;28;20091;-73
2022/05/21 01:18:11;;;;;;;6.35;2.80;;;18.20;99.90;;;;;;5053009;28;20049;-74
2022/05/21 01:20:44;;;;;;;4.03;2.78;;;18.10;99.90;;;;;;5053263;28;20080;-72
2022/05/21 01:23:10;;;;;;;7.32;4.05;;;18.00;99.90;;;;;;5052013;28;20028;-73
2022/05/21 01:25:38;;;;;;;5.13;2.75;;;18.00;99.90;;;;;;5053295;28;20033;-73
2022/05/21 01:28:05;;;;;;;10.80;5.45;;;17.90;99.90;;;;;;5052866;28;20036;-73
2022/05/21 01:30:34;;;;;;;6.13;3.25;;;17.90;99.90;;;;;;5053361;28;20386;-74
2022/05/21 01:33:05;;;;;;;6.63;3.13;;;17.80;99.90;;;;;;5052960;28;20028;-74
2022/05/21 01:35:31;;;;;;;8.85;3.00;;;17.80;99.90;;;;;;5052713;28;20029;-73
2022/05/21 01:37:57;;;;;;;6.72;3.05;;;17.70;99.90;;;;;;5051583;28;20029;-74
2022/05/21 01:40:23;;;;;;;7.15;3.08;;;17.70;99.90;;;;;;5051741;28;20082;-73
2022/05/21 01:44:37;;;;;;;5.13;2.55;;;17.70;99.90;;;;;;5053087;28;20029;-72
2022/05/21 01:45:35;;;;;;;6.43;2.97;;;17.70;99.90;;;;;;5053025;28;20192;-72
2022/05/21 01:48:02;;;;;;;4.03;2.33;;;17.70;99.90;;;;;;5052845;28;20118;-73
2022/05/21 01:50:29;;;;;;;4.15;2.58;;;17.70;99.90;;;;;;5052989;28;20048;-72
2022/05/21 01:52:55;;;;;;;3.90;2.58;;;17.70;99.90;;;;;;5053193;28;20028;-73
2022/05/21 01:55:20;;;;;;;4.35;2.78;;;17.70;99.90;;;;;;5052729;28;20065;-73
2022/05/21 01:57:46;;;;;;;4.78;2.42;;;17.70;99.90;;;;;;5052655;28;20021;-73
2022/05/21 02:00:13;;;;;;;9.27;2.63;;;17.60;99.90;;;;;;5052792;28;20033;-73
2022/05/21 02:02:38;;;;;;;4.75;2.47;;;17.60;99.90;;;;;;5052938;28;20028;-73
2022/05/21 02:05:04;;;;;;;4.47;2.75;;;17.50;99.90;;;;;;5052830;28;20033;-74
2022/05/21 02:07:30;;;;;;;3.13;2.03;;;17.50;99.90;;;;;;5052834;28;20385;-74
2022/05/21 02:09:56;;;;;;;4.97;2.45;;;17.50;99.90;;;;;;5038506;28;20018;-73
2022/05/21 02:12:21;;;;;;;4.57;2.33;;;17.50;99.90;;;;;;5031674;28;20105;-74
2022/05/21 02:14:47;;;;;;;5.30;3.08;;;17.50;99.90;;;;;;5032719;28;20489;-72
2022/05/21 02:17:15;;;;;;;3.15;2.40;;;17.40;99.90;;;;;;5032796;28;20481;-72
2022/05/21 02:19:40;;;;;;;3.85;2.20;;;17.40;99.90;;;;;;5031426;28;20050;-72
2022/05/21 02:22:06;;;;;;;2.35;2.15;;;17.40;99.90;;;;;;5031530;28;20072;-74
2022/05/21 02:24:31;;;;;;;5.43;2.70;;;17.40;99.90;;;;;;5032732;28;20025;-72
2022/05/21 02:26:57;;;;;;;5.05;2.70;;;17.40;99.90;;;;;;5031478;28;20029;-73
2022/05/21 02:29:23;;;;;;;3.17;2.90;;;17.40;99.90;;;;;;5066760;28;20095;-72
2022/05/21 02:31:51;;;;;;;4.85;2.67;;;17.40;99.90;;;;;;5071278;28;20070;-72
2022/05/21 02:34:16;;;;;;;4.05;2.20;;;17.40;99.90;;;;;;5072656;28;20032;-73
2022/05/21 02:39:26;;;;;;;3.47;2.45;;;17.50;99.90;;;;;;5072854;28;20055;-73
2022/05/21 02:41:52;;;;;;;4.28;2.70;;;17.50;99.90;;;;;;5071262;28;20486;-72
2022/05/21 02:44:17;;;;;;;2.80;2.22;;;17.50;99.90;;;;;;5071233;28;20058;-72
2022/05/21 02:46:43;;;;;;;2.90;2.55;;;17.50;99.90;;;;;;5075744;28;20017;-73
2022/05/21 02:49:09;;;;;;;6.43;3.00;;;17.50;99.90;;;;;;5076096;28;20023;-73
2022/05/21 02:51:35;;;;;;;4.10;2.65;;;17.60;99.90;;;;;;5076192;28;20028;-72
2022/05/21 02:54:00;;;;;;;5.22;2.47;;;17.60;99.90;;;;;;5067729;28;20709;-73
2022/05/21 02:56:26;;;;;;;4.15;3.13;;;17.60;99.90;;;;;;5055966;28;20367;-72
2022/05/21 02:58:51;;;;;;;3.17;2.58;;;17.60;99.90;;;;;;5056083;28;20544;-73
2022/05/21 03:01:17;;;;;;;6.43;3.00;;;17.70;99.90;;;;;;5055828;28;20116;-74
2022/05/21 03:03:42;;;;;;;3.35;2.60;;;17.70;99.90;;;;;;5055875;28;20642;-74
2022/05/21 03:06:08;;;;;;;5.85;3.30;;;17.70;99.90;;;;;;5054349;28;20107;-71
2022/05/21 03:11:17;;;;;;;5.47;3.38;;;17.70;99.90;;;;;;5055749;28;20452;-74
2022/05/21 03:13:43;;;;;;;6.53;3.58;;;17.70;99.90;;;;;;5055664;28;20017;-72
2022/05/21 03:16:08;;;;;;;4.30;2.92;;;17.80;99.90;;;;;;5055505;28;20372;-73
2022/05/21 03:18:35;;;;;;;5.63;3.58;;;17.80;99.90;;;;;;5055525;28;20083;-72
2022/05/21 03:21:01;;;;;;;6.75;3.85;;;17.80;99.90;;;;;;5054219;28;20033;-72
2022/05/21 03:23:27;;;;;;;8.18;3.50;;;17.80;99.90;;;;;;5055625;28;20025;-73
2022/05/21 03:25:52;;;;;;;7.85;4.13;;;17.80;99.90;;;;;;5055331;28;20029;-72
2022/05/21 03:28:19;;;;;;;7.13;3.35;;;17.90;99.90;;;;;;5063857;28;20013;-73
2022/05/21 03:30:46;;;;;;;4.10;3.03;;;17.90;99.90;;;;;;5075400;28;20037;-72
2022/05/21 03:33:11;;;;;;;6.88;4.20;;;17.90;99.90;;;;;;5074218;28;20120;-73
2022/05/21 03:35:37;;;;;;;4.18;3.22;;;18.00;99.90;;;;;;5075256;28;20099;-72
2022/05/21 03:38:04;;;;;;;5.68;3.35;;;18.00;99.90;;;;;;5075190;28;20408;-74
2022/05/21 03:40:31;;;;;;;6.28;3.35;;;18.00;99.90;;;;;;5073867;28;20447;-74
2022/05/21 03:42:57;;;;;;;7.05;3.85;;;18.00;99.90;;;;;;5075318;28;20066;-74
2022/05/21 03:45:23;;;;;;;5.30;2.85;;;18.10;99.90;;;;;;5075081;28;20032;-73
2022/05/21 03:47:50;;;;;;;7.40;4.07;;;18.10;99.90;;;;;;5075008;28;20107;-73
2022/05/21 03:50:19;;;;;;;9.13;3.65;;;18.10;99.90;;;;;;5074931;28;20016;-74
2022/05/21 03:52:45;;;;;;;9.52;3.45;;;18.10;99.90;;;;;;5073796;28;20456;-72
2022/05/21 03:55:10;;;;;;;5.38;2.92;;;18.20;99.90;;;;;;5056814;28;20048;-72
2022/05/21 03:57:36;;;;;;;5.45;4.05;;;18.20;99.90;;;;;;5053921;28;20061;-73
2022/05/21 04:00:05;;;;;;;6.72;3.88;;;18.20;99.90;;;;;;5054694;28;20067;-73
2022/05/21 04:02:32;;;;;;;6.55;3.88;;;18.10;99.90;;;;;;5053447;28;20021;-73
2022/05/21 04:04:58;;;;;;;11.05;4.10;;;18.10;99.90;;;;;;5054755;28;20104;-74
2022/05/21 04:07:24;;;;;;;8.43;4.22;;;18.20;99.90;;;;;;5054768;28;20104;-73
2022/05/21 04:09:49;;;;;;;7.45;4.60;;;18.10;99.90;;;;;;5054712;28;20029;-74
2022/05/21 04:12:15;;;;;;;8.15;4.47;;;18.10;99.90;;;;;;5054590;28;20029;-72
2022/05/21 04:14:41;;;;;;;6.32;4.72;;;18.10;99.90;;;;;;5054562;28;20021;-73
2022/05/21 04:17:12;;;;;;;13.00;5.85;;;18.10;99.90;;;;;;5054405;28;20051;-72
2022/05/21 04:19:39;;;;;;;7.25;4.05;;;18.10;99.90;;;;;;5054472;28;20044;-74
2022/05/21 04:22:05;;;;;;;6.35;4.45;;;18.10;99.90;;;;;;5054256;28;20112;-72
2022/05/21 04:24:30;;;;;;;6.30;4.47;;;18.10;99.90;;;;;;5054501;28;20102;-72
2022/05/21 04:26:56;;;;;;;10.10;4.25;;;18.10;99.90;;;;;;5054145;28;20029;-73
2022/05/21 04:29:21;;;;;;;8.63;4.45;;;18.10;99.90;;;;;;5071790;28;20020;-72
2022/05/21 04:31:47;;;;;;;9.82;4.88;;;18.10;99.90;;;;;;5074102;28;20024;-72
2022/05/21 04:34:13;;;;;;;8.18;4.57;;;18.10;99.90;;;;;;5074333;28;20108;-73
2022/05/21 04:36:39;;;;;;;10.77;4.13;;;18.20;99.90;;;;;;5074024;28;20111;-72
2022/05/21 04:39:05;;;;;;;11.40;4.10;;;18.30;99.90;;;;;;5074106;28;20392;-73
2022/05/21 04:41:30;;;;;;;7.35;3.80;;;18.30;99.90;;;;;;5073919;28;20044;-73
2022/05/21 04:43:56;;;;;;;6.18;3.80;;;18.40;99.90;;;;;;5073786;28;20393;-73
2022/05/21 04:46:24;;;;;;;8.50;4.40;;;18.50;99.90;;;;;;5072565;28;20097;-72
2022/05/21 04:48:50;;;;;;;5.72;3.33;;;18.50;99.90;;;;;;5072638;28;20024;-72
2022/05/21 04:51:16;;;;;;;6.20;3.47;;;18.50;99.90;;;;;;5073768;28;20477;-74
2022/05/21 04:53:43;;;;;;;6.53;3.53;;;18.60;99.90;;;;;;5067554;28;20078;-73
2022/05/21 04:56:08;;;;;;;6.13;3.10;;;18.70;99.90;;;;;;5053418;28;20485;-73
2022/05/21 04:58:34;;;;;;;4.93;3.15;;;18.70;99.90;;;;;;5041065;28;20030;-75
2022/05/21 05:01:01;;;;;;;6.97;3.17;;;18.80;99.90;;;;;;5037689;28;20033;-72
2022/05/21 05:03:27;;;;;;;7.35;3.88;;;18.80;99.90;;;;;;5061485;28;20391;-72
2022/05/21 05:05:53;;;;;;;4.80;3.30;;;18.80;99.70;;;;;;5062837;28;20052;-72
2022/05/21 05:08:20;;;;;;;6.57;3.25;;;18.90;98.10;;;;;;5059247;28;20482;-72
2022/05/21 05:10:46;;;;;;;4.07;2.50;;;18.90;98.80;;;;;;5059004;28;20477;-72
2022/05/21 05:13:13;;;;;;;6.00;3.47;;;18.90;98.10;;;;;;5072509;28;20542;-72
2022/05/21 05:15:39;;;;;;;4.80;3.22;;;19.00;99.20;;;;;;5051836;28;20031;-73
2022/05/21 05:18:08;;;;;;;6.70;3.03;;;19.10;99.40;;;;;;5072790;28;20033;-73
2022/05/21 05:20:34;;;;;;;7.18;3.33;;;19.10;98.20;;;;;;5073180;28;20064;-73
2022/05/21 05:22:59;;;;;;;5.28;3.47;;;19.10;99.10;;;;;;5073025;28;20466;-73
2022/05/21 05:25:25;;;;;;;3.97;3.40;;;19.10;96.10;;;;;;5069643;28;20031;-73
2022/05/21 05:27:51;;;;;;;7.28;4.20;;;19.20;99.00;;;;;;5041082;28;20028;-74
2022/05/21 05:30:19;;;;;;;4.63;3.55;;;19.20;99.90;;;;;;5038594;28;20425;-72
2022/05/21 05:32:45;;;;;;;8.32;3.90;;;19.20;99.90;;;;;;5034448;28;20036;-72
2022/05/21 05:35:11;;;;;;;6.80;3.38;;;19.20;99.90;;;;;;5037113;28;20033;-73
2022/05/21 05:37:37;;;;;;;6.63;3.50;;;19.10;99.90;;;;;;5038348;28;20482;-72
2022/05/21 05:40:04;;;;;;;5.50;3.25;;;19.10;99.90;;;;;;5044173;28;20079;-73
2022/05/21 05:42:29;;;;;;;4.07;2.97;;;19.10;99.90;;;;;;5042593;28;20021;-72
2022/05/21 05:44:55;;;;;;;7.20;3.25;;;19.10;97.00;;;;;;5052893;28;20413;-71
2022/05/21 05:47:21;;;;;;;6.30;3.20;;;19.20;95.10;;;;;;5052738;28;20021;-72
2022/05/21 05:49:46;;;;;;;15.60;3.90;;;19.10;87.10;;;;;;5051444;28;20017;-73
2022/05/21 05:52:12;;;;;;;4.05;3.33;;;19.10;83.60;;;;;;5052584;28;20057;-72
2022/05/21 05:54:38;;;;;;;2.97;2.78;;;19.20;84.60;;;;;;5052661;28;20029;-74
2022/05/21 05:57:09;;;;;;;4.03;2.72;;;19.20;81.70;;;;;;5052527;28;20029;-73
2022/05/21 05:59:48;;;;;;;4.20;2.85;;;19.10;80.80;;;;;;5051409;28;20029;-73
2022/05/21 06:05:05;;;;;;;6.38;2.83;;;19.70;79.60;;;;;;5052736;28;20158;-73
2022/05/21 06:07:31;;;;;;;9.20;2.88;;;19.60;72.50;;;;;;5052638;28;20025;-73
2022/05/21 06:10:02;;;;;;;5.85;2.95;;;19.70;71.80;;;;;;5052736;28;20024;-74
2022/05/21 06:12:28;;;;;;;9.88;2.40;;;19.60;71.40;;;;;;5042867;28;20024;-73
2022/05/21 06:14:54;;;;;;;6.30;2.47;;;19.70;70.90;;;;;;5053061;28;20041;-73
2022/05/21 06:17:20;;;;;;;8.68;2.72;;;19.70;69.10;;;;;;5041717;28;20025;-73
2022/05/21 06:19:46;;;;;;;4.80;2.33;;;19.70;69.10;;;;;;5070670;28;20082;-73
2022/05/21 06:22:11;;;;;;;10.38;2.90;;;19.60;67.80;;;;;;5069848;28;20031;-74
2022/05/21 06:24:37;;;;;;;5.25;1.77;;;19.80;67.90;;;;;;5064894;28;20032;-73
2022/05/21 06:27:04;;;;;;;6.30;2.58;;;19.70;67.80;;;;;;5069149;28;20036;-73
2022/05/21 06:29:30;;;;;;;3.15;2.22;;;19.70;68.20;;;;;;5063411;28;20413;-73
2022/05/21 06:31:57;;;;;;;5.78;2.80;;;19.70;67.80;;;;;;5074884;28;20019;-73
2022/05/21 06:34:23;;;;;;;7.07;2.25;;;19.70;68.20;;;;;;5074574;28;20067;-73
2022/05/21 06:36:48;;;;;;;12.30;3.00;;;19.80;68.80;;;;;;5073800;28;20462;-73
2022/05/21 06:39:14;;;;;;;3.60;2.38;;;19.70;68.40;;;;;;5072768;28;20043;-73
2022/05/21 06:41:40;;;;;;;6.72;2.40;;;19.60;68.50;;;;;;5073648;28;20036;-72
2022/05/21 06:44:05;;;;;;;2.20;2.03;;;19.50;69.30;;;;;;5060410;28;20587;-73
2022/05/21 06:46:31;;;;;;;5.28;1.95;;;19.70;69.40;;;;;;5056481;28;20025;-73
2022/05/21 06:48:56;;;;;;;4.72;2.22;;;19.80;67.60;;;;;;5050586;28;20387;-73
2022/05/21 06:51:22;;;;;;;5.30;1.35;;;19.70;65.80;;;;;;5056816;28;20060;-73
2022/05/21 06:53:48;;;;;;;5.88;1.85;;;19.40;61.90;;;;;;5054576;28;20028;-73
2022/05/21 06:56:15;;;;;;;9.65;1.25;;;19.40;61.60;;;;;;5055049;28;20021;-73
2022/05/21 06:58:42;;;;;;;3.42;1.50;;;19.10;60.90;;;;;;5058216;28;20032;-73
2022/05/21 07:01:09;;;;;;;3.92;1.30;;;19.20;61.40;;;;;;5054739;28;20124;-73
2022/05/21 07:03:35;;;;;;;3.70;1.33;;;19.20;60.70;;;;;;5056410;28;20025;-74
2022/05/21 07:08:45;;;;;;;7.03;1.30;;;19.20;59.00;;;;;;5055535;28;20044;-74
2022/05/21 07:11:11;;;;;;;4.38;1.65;;;19.30;57.50;;;;;;5067936;28;20017;-73
2022/05/21 07:13:37;;;;;;;2.45;0.90;;;19.20;57.80;;;;;;5074693;28;20032;-74
2022/05/21 07:16:03;;;;;;;7.88;1.30;;;19.30;57.40;;;;;;5074049;28;20090;-73
2022/05/21 07:18:28;;;;;;;6.47;1.08;;;19.40;57.20;;;;;;5074454;28;20052;-73
2022/05/21 07:20:55;;;;;;;4.85;1.15;;;19.20;57.20;;;;;;5064096;28;20191;-74
2022/05/21 07:23:23;;;;;;;2.20;1.17;;;19.30;57.80;;;;;;5074464;28;20123;-73
2022/05/21 07:25:48;;;;;;;6.97;1.20;;;19.40;57.50;;;;;;5074002;28;20035;-73
2022/05/21 07:28:15;;;;;;;5.20;1.73;;;19.60;57.10;;;;;;5071795;28;20492;-73
2022/05/21 07:30:42;;;;;;;4.35;1.17;;;19.80;56.80;;;;;;5062639;28;20025;-73
2022/05/21 07:33:14;;;;;;;8.70;1.52;;;20.10;55.40;;;;;;5058934;28;20490;-73
2022/05/21 07:35:39;;;;;;;5.27;1.07;;;19.80;52.70;;;;;;5074480;28;20060;-73
2022/05/21 07:38:06;;;;;;;10.05;1.10;;;19.80;52.60;;;;;;5073128;28;20055;-73
2022/05/21 07:40:32;;;;;;;5.00;0.52;;;19.90;53.00;;;;;;5074247;28;20078;-73
2022/05/21 07:42:58;;;;;;;12.35;1.15;;;20.10;52.30;;;;;;5063060;28;20032;-73
2022/05/21 07:45:24;;;;;;;4.25;1.15;;;20.40;52.40;;;;;;5072955;28;20493;-74
2022/05/21 07:47:50;;;;;;;12.40;1.10;;;20.40;51.80;;;;;;5073817;28;20057;-74
2022/05/21 07:50:17;;;;;;;10.05;1.35;;;20.20;51.20;;;;;;5073842;28;20031;-74
2022/05/21 07:52:43;;;;;;;8.80;0.82;;;20.20;51.00;;;;;;5071821;28;20059;-74
2022/05/21 07:55:11;;;;;;;4.55;1.17;;;20.30;51.50;;;;;;5065269;28;20074;-74
2022/05/21 07:57:37;;;;;;;5.13;0.80;;;20.40;50.70;;;;;;5072421;28;20024;-74
2022/05/21 08:00:05;;;;;;;2.67;0.65;;;20.30;50.70;;;;;;5073393;28;20037;-74
2022/05/21 08:02:30;;;;;;;2.50;0.70;;;20.20;49.20;;;;;;5067873;28;20017;-73
2022/05/21 08:04:56;;;;;;;9.13;0.63;;;20.40;49.70;;;;;;5046999;28;20026;-73
2022/05/21 08:07:22;;;;;;;9.25;0.98;;;20.50;49.30;;;;;;5049710;28;20016;-73
2022/05/21 08:09:48;;;;;;;1.17;0.50;;;20.30;49.10;;;;;;5072702;28;20045;-73
2022/05/21 08:12:14;;;;;;;4.40;0.40;;;20.10;49.70;;;;;;5069570;28;20480;-74
2022/05/21 08:14:41;;;;;;;4.32;0.82;;;19.70;49.90;;;;;;5073487;28;20047;-73
2022/05/21 08:17:08;;;;;;;1.92;0.75;;;19.80;50.30;;;;;;5072055;28;20024;-73
2022/05/21 08:19:34;;;;;;;5.28;0.77;;;20.20;51.50;;;;;;5069999;28;20059;-74
2022/05/21 08:26:56;;;;;;;9.15;0.88;;;20.20;50.20;;;;;;5068836;28;20024;-74
2022/05/21 08:27:30;;;;;;;3.83;0.85;;;19.90;52.70;;;;;;5069705;28;20136;-74
2022/05/21 08:29:55;;;;;;;3.63;0.70;;;19.60;52.60;;;;;;5069105;28;20107;-74
2022/05/21 08:32:21;;;;;;;3.53;1.00;;;19.90;52.80;;;;;;5052383;28;20036;-73
2022/05/21 08:34:46;;;;;;;1.60;0.55;;;20.10;52.60;;;;;;5071579;28;20545;-74
2022/05/21 08:37:12;;;;;;;3.70;0.70;;;19.90;51.70;;;;;;5072269;28;20524;-74
2022/05/21 08:39:38;;;;;;;3.03;1.02;;;20.10;51.90;;;;;;5072621;28;20116;-74
2022/05/21 08:42:13;;;;;;;9.05;1.23;;;20.10;51.60;;;;;;5060924;28;20121;-74
2022/05/21 08:44:47;;;;;;;6.53;0.98;;;20.50;51.00;;;;;;5072166;28;20068;-74
2022/05/21 08:47:17;;;;;;;3.88;0.77;;;20.60;48.40;;;;;;5071413;28;20029;-74
2022/05/21 08:49:50;;;;;;;8.50;1.27;;;20.50;48.50;;;;;;5071347;28;20028;-74
2022/05/21 08:52:18;;;;;;;6.05;0.70;;;20.30;48.30;;;;;;5072111;28;20027;-74
2022/05/21 08:54:47;;;;;;;3.22;0.75;;;20.40;48.20;;;;;;5072670;28;20117;-74
2022/05/21 08:57:22;;;;;;;5.53;1.02;;;20.70;48.50;;;;;;5071145;28;20028;-74
2022/05/21 09:00:00;;;;;;;1.65;0.70;;;20.60;48.30;;;;;;5054392;28;20051;-74
2022/05/21 09:02:30;;;;;;;3.47;0.65;;;20.30;47.50;;;;;;5072626;28;20025;-74
2022/05/21 09:04:56;;;;;;;3.47;0.57;;;20.40;47.70;;;;;;5072149;28;20111;-74
2022/05/21 09:07:26;;;;;;;7.88;1.08;;;20.40;46.90;;;;;;5072026;28;20095;-74
2022/05/21 09:10:21;;;;;;;10.35;1.00;;;20.60;46.60;;;;;;5072160;28;20397;-74
2022/05/21 09:13:08;;;;;;;4.28;0.90;;;20.50;46.80;;;;;;5050264;28;20032;-74
2022/05/21 09:18:17;;;;;;;8.48;0.95;;;20.60;47.00;;;;;;5070593;28;20044;-74
2022/05/21 09:21:02;;;;;;;0.80;0.63;;;20.30;46.70;;;;;;5066639;28;20052;-73
2022/05/21 09:23:54;;;;;;;3.17;0.82;;;20.30;47.40;;;;;;5059837;28;20045;-73
2022/05/21 09:26:23;;;;;;;6.30;1.10;;;20.30;47.90;;;;;;5063577;28;20074;-73
2022/05/21 09:28:49;;;;;;;3.13;0.95;;;19.80;47.90;;;;;;5066482;28;20075;-74
2022/05/21 09:31:27;;;;;;;3.72;0.70;;;20.00;48.60;;;;;;5067317;28;20056;-74
2022/05/21 09:33:55;;;;;;;5.50;0.90;;;20.10;48.70;;;;;;5061902;28;20032;-74
2022/05/21 09:36:32;;;;;;;6.53;1.13;;;20.30;48.20;;;;;;5069485;28;20021;-74
2022/05/21 09:38:58;;;;;;;2.00;0.85;;;20.40;48.00;;;;;;5069821;28;20485;-74
2022/05/21 09:41:28;;;;;;;5.15;1.83;;;20.00;48.00;;;;;;5070257;28;20117;-73
2022/05/21 09:47:15;;;;;;;5.18;0.90;;;20.60;48.50;;;;;;5070497;28;20166;-73
2022/05/21 09:49:42;;;;;;;5.57;1.20;;;20.90;47.90;;;;;;5071769;28;20040;-74
2022/05/21 09:52:21;;;;;;;3.50;0.70;;;20.60;47.20;;;;;;5071002;28;20021;-74
2022/05/21 09:54:47;;;;;;;3.10;0.70;;;20.70;47.90;;;;;;5071179;28;20099;-73
2022/05/21 09:57:33;;;;;;;0.93;0.70;;;20.10;47.90;;;;;;5071534;28;20032;-73
2022/05/21 10:00:20;;;;;;;2.45;1.00;;;20.20;49.50;;;;;;5071410;28;20112;-74
2022/05/21 10:03:00;;;;;;;4.65;0.90;;;20.00;49.20;;;;;;5072069;28;20036;-73
2022/05/21 10:05:31;;;;;;;3.72;0.75;;;20.30;49.50;;;;;;5069070;28;20040;-73
2022/05/21 10:10:59;;;;;;;5.25;1.48;;;20.50;48.30;;;;;;5070492;28;20051;-73
2022/05/21 10:13:29;;;;;;;1.42;0.70;;;20.80;48.10;;;;;;5044043;28;20074;-73
2022/05/21 10:16:26;;;;;;;6.47;1.15;;;21.20;48.30;;;;;;5071275;28;20033;-73
2022/05/21 10:19:17;;;;;;;3.75;0.80;;;20.90;47.20;;;;;;5049090;28;20033;-74
2022/05/21 10:22:21;;;;;;;4.05;0.80;;;21.20;45.90;;;;;;5068726;28;20080;-73
2022/05/21 10:25:00;;;;;;;1.98;0.70;;;20.90;46.30;;;;;;5071363;28;20028;-73
2022/05/21 10:27:32;;;;;;;2.13;1.23;;;19.90;47.50;;;;;;5066575;28;20428;-74
2022/05/21 10:30:16;;;;;;;6.50;1.13;;;19.70;48.10;;;;;;5058090;28;20039;-74
2022/05/21 10:33:21;;;;;;;3.30;0.90;;;19.70;48.40;;;;;;5056652;28;20090;-74
2022/05/21 10:36:07;;;;;;;1.73;0.90;;;19.60;48.70;;;;;;5070706;28;20055;-74
2022/05/21 10:38:44;;;;;;;6.80;1.00;;;19.80;49.00;;;;;;5070344;28;20032;-74
2022/05/21 10:41:13;;;;;;;4.28;0.98;;;20.40;48.50;;;;;;5047648;28;20045;-74
2022/05/21 10:43:59;;;;;;;3.33;1.60;;;20.50;47.00;;;;;;5041587;28;20057;-74
2022/05/21 10:46:31;;;;;;;4.43;2.00;;;20.70;46.20;;;;;;5044405;28;20120;-74
2022/05/21 10:49:14;;;;;;;5.77;1.87;;;20.70;45.30;;;;;;5041749;28;20017;-74
2022/05/21 10:51:52;;;;;;;5.55;1.90;;;21.00;45.90;;;;;;5041085;28;20053;-74
2022/05/21 10:54:51;;;;;;;5.88;1.40;;;21.10;45.70;;;;;;5045423;28;20477;-74
2022/05/21 10:57:38;;;;;;;4.32;1.55;;;21.20;45.90;;;;;;5065674;28;20091;-74
2022/05/21 11:00:09;;;;;;;7.38;1.85;;;20.90;45.90;;;;;;5071129;28;20477;-74
2022/05/21 11:03:18;;;;;;;5.38;1.75;;;20.80;46.40;;;;;;5058162;28;20494;-74
2022/05/21 11:06:10;;;;;;;4.43;1.60;;;21.20;47.00;;;;;;5010826;28;20037;-73
2022/05/21 11:09:02;;;;;;;3.78;1.55;;;21.30;45.50;;;;;;5023982;28;20021;-74
2022/05/21 11:11:28;;;;;;;3.50;1.42;;;21.70;45.70;;;;;;5037771;28;20491;-74
2022/05/21 11:14:15;;;;;;;2.72;1.50;;;21.20;43.70;;;;;;5047080;28;20032;-74
2022/05/21 11:17:03;;;;;;;5.82;2.72;;;21.20;44.80;;;;;;5046965;28;20045;-73
2022/05/21 11:19:56;;;;;;;8.35;3.20;;;21.20;44.90;;;;;;5062731;28;20107;-73
2022/05/21 11:22:38;;;;;;;8.48;4.70;;;21.30;44.80;;;;;;5048452;28;20041;-73
2022/05/21 11:25:28;;;;;;;6.65;3.70;;;21.10;44.80;;;;;;5047956;28;20374;-73
2022/05/21 11:28:03;;;;;;;3.83;1.98;;;21.40;45.10;;;;;;5048530;28;20070;-73
2022/05/21 11:30:28;;;;;;;5.18;1.73;;;21.30;45.20;;;;;;5046888;28;20070;-72
2022/05/21 11:38:38;;;;;;;4.28;3.25;;;20.00;46.50;;;;;;5049245;28;20040;-73
2022/05/21 11:41:25;;;;;;;6.97;2.72;;;20.20;46.70;;;;;;5071473;28;20119;-72
2022/05/21 11:46:47;;;;;;;9.00;1.88;;;20.60;45.50;;;;;;5050611;28;20059;-73
2022/05/21 11:49:44;;;;;;;5.65;1.60;;;20.80;45.00;;;;;;5061495;28;20071;-73
2022/05/21 11:52:27;;;;;;;2.30;1.25;;;20.80;44.20;;;;;;5066355;28;20075;-72
2022/05/21 11:54:53;;;;;;;1.42;1.33;;;20.90;44.00;;;;;;5064355;28;21309;-73
2022/05/21 11:57:32;;;;;;;4.85;1.02;;;21.30;44.30;;;;;;5036923;28;20036;-73
2022/05/21 11:59:59;;;;;;;5.05;0.98;;;21.50;43.20;;;;;;5039269;28;20033;-73
2022/05/21 12:02:31;;;;;;;6.05;0.80;;;21.20;42.30;;;;;;5054431;28;20059;-73
2022/05/21 12:05:05;;;;;;;2.80;0.90;;;21.30;42.70;;;;;;5053507;28;20532;-73
2022/05/21 12:07:46;;;;;;;4.90;1.80;;;21.10;42.50;;;;;;5054348;28;20024;-73
2022/05/21 12:10:24;;;;;;;2.10;0.93;;;21.40;42.30;;;;;;5053241;28;20029;-74
2022/05/21 12:13:11;;;;;;;3.30;1.10;;;21.50;41.90;;;;;;5054264;28;20098;-73
2022/05/21 12:15:39;;;;;;;3.35;1.00;;;21.50;41.90;;;;;;5052870;28;20028;-73
2022/05/21 12:18:26;;;;;;;3.63;1.23;;;21.30;42.20;;;;;;5053325;28;20490;-74
2022/05/21 12:20:52;;;;;;;2.42;0.70;;;21.00;42.10;;;;;;5052311;28;20086;-73
2022/05/21 12:23:29;;;;;;;2.03;0.65;;;21.20;41.00;;;;;;5054277;28;20108;-74
2022/05/21 12:25:58;;;;;;;2.95;0.75;;;21.10;41.10;;;;;;5052967;28;20032;-74
2022/05/21 12:28:36;;;;;;;3.05;1.98;;;21.10;41.40;;;;;;5046634;28;20501;-73
2022/05/21 12:31:06;;;;;;;3.92;0.70;;;21.20;41.70;;;;;;5043979;28;20394;-73
2022/05/21 12:33:38;;;;;;;3.97;1.00;;;21.30;41.90;;;;;;5041791;28;20061;-72
2022/05/21 12:36:28;;;;;;;;;;;21.40;41.80;;;;;;5036289;28;20494;-73
2022/05/21 12:38:54;;;;;;;11.50;1.50;;;21.50;42.00;;;;;;5032586;28;19905;-72
2022/05/21 12:41:32;;;;;;;3.33;0.80;;;21.40;41.90;;;;;;5034611;28;20030;-72
2022/05/21 12:43:58;;;;;;;5.30;0.85;;;21.10;41.80;;;;;;5063439;28;20016;-73
2022/05/21 12:46:33;;;;;;;3.17;0.82;;;20.70;42.20;;;;;;5071393;28;20040;-74
2022/05/21 12:49:04;;;;;;;3.00;1.63;;;20.60;42.40;;;;;;5066972;28;20032;-73
2022/05/21 12:51:33;;;;;;;2.85;2.55;;;20.90;43.00;;;;;;5045010;28;20090;-73
2022/05/21 12:54:03;;;;;;;4.05;3.65;;;20.70;42.60;;;;;;5048354;28;20029;-73
2022/05/21 12:56:35;;;;;;;5.05;3.47;;;20.70;43.10;;;;;;5049255;28;20152;-73
2022/05/21 12:59:20;;;;;;;5.43;3.00;;;19.90;43.10;;;;;;5050866;28;20479;-73
2022/05/21 13:02:17;;;;;;;5.97;1.83;;;19.90;43.80;;;;;;5054432;28;20068;-72
2022/05/21 13:04:48;;;;;;;1.85;1.75;;;19.60;44.30;;;;;;5051051;28;20119;-72
2022/05/21 13:07:36;;;;;;;7.10;2.70;;;19.30;44.10;;;;;;5049073;28;20032;-72
2022/05/21 13:10:21;;;;;;;4.55;3.03;;;19.40;44.90;;;;;;5042992;28;20022;-73
2022/05/21 13:12:53;;;;;;;8.00;3.67;;;19.40;45.20;;;;;;5045212;28;20021;-72
2022/05/21 13:15:31;;;;;;;7.70;4.72;;;20.00;45.20;;;;;;5047408;28;20096;-72
2022/05/21 13:18:03;;;;;;;6.57;3.60;;;20.30;44.30;;;;;;5040785;28;20099;-73
2022/05/21 13:20:47;;;;;;;7.50;5.85;;;20.70;44.30;;;;;;5042103;28;20072;-72
2022/05/21 13:23:29;;;;;;;7.32;6.10;;;21.00;43.60;;;;;;5043590;28;20041;-72
2022/05/21 13:25:55;;;;;;;3.10;1.83;;;21.00;43.50;;;;;;5044451;28;20043;-73
2022/05/21 13:28:24;;;;;;;2.15;1.10;;;20.70;43.40;;;;;;5043157;28;20120;-73
2022/05/21 13:30:51;;;;;;;1.50;1.20;;;20.50;43.50;;;;;;5043241;28;20043;-73
2022/05/21 13:33:49;;;;;;;4.93;1.83;;;20.50;43.00;;;;;;5043607;28;20112;-73
2022/05/21 13:36:18;;;;;;;6.97;1.88;;;20.50;43.00;;;;;;5037825;28;20025;-73
2022/05/21 13:38:47;;;;;;;4.57;3.63;;;20.40;42.70;;;;;;5056073;28;20072;-73